createdAt,value
2017-06-24T00:02:19.905Z,99.90
2017-06-24T00:04:48.973Z,99.90
2017-06-24T00:07:17.221Z,99.90
2017-06-24T00:09:45.461Z,99.90
2017-06-24T00:15:45.072Z,99.90
2017-06-24T00:18:14.135Z,99.90
2017-06-24T00:20:42.369Z,99.90
2017-06-24T00:23:10.633Z,99.90
2017-06-24T00:31:41.485Z,99.90
2017-06-24T00:37:10.221Z,99.90
2017-06-24T00:39:38.478Z,99.90
2017-06-24T00:42:07.494Z,99.90
2017-06-24T00:44:35.782Z,99.90
2017-06-24T00:47:04.019Z,99.90
2017-06-24T00:49:32.335Z,99.90
2017-06-24T00:52:00.608Z,99.90
2017-06-24T00:54:28.863Z,99.90
2017-06-24T00:57:00.143Z,99.90
2017-06-24T00:59:28.436Z,99.90
2017-06-24T01:01:56.695Z,99.90
2017-06-24T01:04:24.956Z,99.90
2017-06-24T01:10:00.317Z,99.90
2017-06-24T01:12:28.555Z,99.90
2017-06-24T01:14:56.827Z,99.90
2017-06-24T01:17:25.867Z,99.90
2017-06-24T01:28:57.193Z,99.90
2017-06-24T01:31:25.445Z,99.90
2017-06-24T01:33:59.671Z,99.90
2017-06-24T01:36:54.461Z,99.90
2017-06-24T01:42:22.615Z,99.90
2017-06-24T01:50:59.183Z,99.90
2017-06-24T01:56:28.338Z,99.90
2017-06-24T01:58:56.578Z,99.90
2017-06-24T02:07:27.047Z,99.90
2017-06-24T02:09:55.289Z,99.90
2017-06-24T02:12:23.606Z,99.90
2017-06-24T02:14:51.873Z,99.90
2017-06-24T02:17:20.184Z,99.90
2017-06-24T02:19:49.196Z,99.90
2017-06-24T02:22:17.444Z,99.90
2017-06-24T02:24:46.502Z,99.90
2017-06-24T02:27:14.744Z,99.90
2017-06-24T02:30:00.229Z,99.90
2017-06-24T02:32:28.500Z,99.90
2017-06-24T02:35:00.245Z,99.90
2017-06-24T02:37:29.259Z,99.90
2017-06-24T02:39:57.537Z,99.90
2017-06-24T02:42:25.780Z,99.90
2017-06-24T02:44:54.837Z,99.90
2017-06-24T02:47:23.130Z,99.90
2017-06-24T02:49:51.403Z,99.90
2017-06-24T02:52:19.635Z,99.90
2017-06-24T02:54:47.930Z,99.90
2017-06-24T02:57:16.150Z,99.90
2017-06-24T02:59:45.159Z,99.90
2017-06-24T03:08:14.422Z,99.90
2017-06-24T03:10:59.230Z,99.90
2017-06-24T03:19:28.452Z,99.90
2017-06-24T03:21:56.696Z,99.90
2017-06-24T03:27:26.321Z,99.90
2017-06-24T03:32:54.967Z,99.90
2017-06-24T03:35:23.222Z,99.90
2017-06-24T03:37:51.477Z,99.90
2017-06-24T03:40:19.774Z,99.90
2017-06-24T03:45:48.623Z,99.90
2017-06-24T03:48:16.906Z,99.90
2017-06-24T03:50:45.161Z,99.90
2017-06-24T04:02:15.655Z,99.90
2017-06-24T04:04:44.668Z,99.90
2017-06-24T04:07:12.912Z,99.90
2017-06-24T04:09:42.027Z,99.90
2017-06-24T04:24:13.126Z,99.90
2017-06-24T04:29:58.754Z,99.90
2017-06-24T04:32:27.051Z,99.90
2017-06-24T04:37:56.510Z,99.90
2017-06-24T04:40:24.750Z,99.90
2017-06-24T05:01:01.971Z,99.90
2017-06-24T05:03:58.334Z,99.90
2017-06-24T05:06:27.347Z,99.90
2017-06-24T05:15:00.987Z,99.90
2017-06-24T05:20:30.495Z,99.90
2017-06-24T05:22:59.843Z,99.90
2017-06-24T05:25:28.095Z,99.90
2017-06-24T05:27:56.363Z,99.90
2017-06-24T05:30:24.694Z,99.90
2017-06-24T05:32:59.455Z,99.90
2017-06-24T05:38:28.161Z,99.90
2017-06-24T05:40:57.199Z,99.90
2017-06-24T05:43:25.477Z,99.90
2017-06-24T05:46:00.419Z,99.90
2017-06-24T05:48:28.642Z,99.90
2017-06-24T05:54:01.092Z,99.90
2017-06-24T05:59:57.924Z,99.90
2017-06-24T06:32:59.593Z,99.90
2017-06-24T06:38:29.041Z,99.90
2017-06-24T07:14:11.966Z,99.90
2017-06-24T07:22:15.530Z,99.90
2017-06-24T08:13:19.848Z,95.20
2017-06-24T08:31:21.378Z,92.40
2017-06-24T08:39:50.505Z,90.80
2017-06-24T08:48:22.721Z,90.00
2017-06-24T08:51:20.877Z,90.40
2017-06-24T08:53:49.194Z,90.50
2017-06-24T09:05:22.346Z,87.50
2017-06-24T09:07:50.597Z,87.00
2017-06-24T09:10:18.907Z,85.30
2017-06-24T09:12:53.114Z,84.40
2017-06-24T09:15:21.418Z,83.00
2017-06-24T09:24:00.358Z,82.70
2017-06-24T09:41:30.671Z,77.90
2017-06-24T09:44:00.134Z,77.60
2017-06-24T09:52:29.727Z,78.80
2017-06-24T09:54:58.745Z,75.90
2017-06-24T09:57:26.993Z,75.90
2017-06-24T10:00:21.092Z,73.40
2017-06-24T10:02:49.725Z,70.70
2017-06-24T10:05:17.954Z,76.30
2017-06-24T10:07:46.234Z,74.30
2017-06-24T10:10:14.514Z,78.00
2017-06-24T10:12:42.786Z,76.20
2017-06-24T10:15:11.087Z,77.60
2017-06-24T10:20:17.509Z,84.50
2017-06-24T10:22:45.761Z,83.80
2017-06-24T10:25:13.999Z,84.10
2017-06-24T10:27:42.309Z,83.60
2017-06-24T10:30:20.787Z,83.80
2017-06-24T10:33:01.730Z,81.80
2017-06-24T10:35:29.967Z,80.40
2017-06-24T10:37:58.230Z,79.10
2017-06-24T10:40:26.511Z,77.30
2017-06-24T10:43:00.671Z,78.90
2017-06-24T10:48:42.734Z,75.20
2017-06-24T10:51:10.978Z,74.80
2017-06-24T10:53:39.211Z,74.20
2017-06-24T10:56:16.188Z,69.60
2017-06-24T11:31:50.413Z,61.30
2017-06-24T11:34:18.654Z,61.30
2017-06-24T11:36:59.264Z,63.80
2017-06-24T11:39:27.503Z,59.80
2017-06-24T11:42:21.883Z,60.00
2017-06-24T11:44:50.123Z,61.00
2017-06-24T11:47:18.380Z,57.10
2017-06-24T12:01:48.914Z,55.80
2017-06-24T12:07:42.034Z,53.30
2017-06-24T12:10:10.288Z,55.00
2017-06-24T12:15:21.729Z,53.00
2017-06-24T12:17:49.975Z,51.80
2017-06-24T12:20:34.969Z,54.00
2017-06-24T12:26:23.001Z,53.30
2017-06-24T12:29:20.923Z,53.80
2017-06-24T12:31:49.341Z,51.80
2017-06-24T12:37:24.093Z,53.40
2017-06-24T12:40:20.396Z,52.20
2017-06-24T12:42:49.470Z,52.60
2017-06-24T12:45:17.731Z,52.10
2017-06-24T12:47:45.962Z,55.00
2017-06-24T12:50:14.235Z,52.50
2017-06-24T12:55:43.287Z,54.30
2017-06-24T12:58:11.535Z,53.80
2017-06-24T13:00:39.845Z,52.50
2017-06-24T13:03:08.091Z,52.60
2017-06-24T13:05:36.315Z,53.00
2017-06-24T13:08:04.625Z,51.00
2017-06-24T13:10:32.859Z,52.10
2017-06-24T13:13:01.100Z,50.50
2017-06-24T13:21:30.250Z,51.20
2017-06-24T13:23:58.483Z,51.50
2017-06-24T13:26:26.775Z,51.00
2017-06-24T13:38:21.991Z,51.00
2017-06-24T13:41:00.736Z,51.50
2017-06-24T13:43:35.454Z,51.30
2017-06-24T13:52:21.215Z,51.20
2017-06-24T13:54:49.543Z,50.50
2017-06-24T13:57:18.548Z,50.30
2017-06-24T13:59:47.549Z,49.40
2017-06-24T14:02:15.847Z,49.40
2017-06-24T14:04:44.092Z,49.20
2017-06-24T14:10:21.223Z,49.30
2017-06-24T14:12:49.458Z,49.20
2017-06-24T14:15:23.673Z,47.70
2017-06-24T14:21:19.838Z,45.10
2017-06-24T14:27:01.870Z,45.60
2017-06-24T14:29:30.136Z,43.90
2017-06-24T14:31:58.406Z,43.80
2017-06-24T14:34:28.278Z,44.00
2017-06-24T14:36:56.566Z,43.80
2017-06-24T14:39:24.808Z,43.60
2017-06-24T14:48:00.300Z,43.30
2017-06-24T14:50:28.528Z,43.60
2017-06-24T14:52:56.752Z,43.00
2017-06-24T14:58:25.185Z,42.10
2017-06-24T15:00:53.549Z,42.20
2017-06-24T15:03:21.831Z,42.30
2017-06-24T15:05:50.083Z,42.80
2017-06-24T15:08:18.324Z,42.70
2017-06-24T15:25:59.755Z,42.70
2017-06-24T15:28:27.991Z,42.60
2017-06-24T15:30:56.218Z,41.20
2017-06-24T15:33:24.490Z,39.90
2017-06-24T15:35:52.763Z,39.50
2017-06-24T15:59:25.452Z,41.60
2017-06-24T16:01:53.702Z,41.70
2017-06-24T16:04:21.953Z,41.20
2017-06-24T16:09:51.367Z,38.80
2017-06-24T16:12:20.366Z,39.10
2017-06-24T16:14:48.598Z,39.00
2017-06-24T16:17:16.881Z,40.30
2017-06-24T16:31:47.986Z,37.70
2017-06-24T16:34:16.277Z,39.10
2017-06-24T16:43:05.648Z,40.40
2017-06-24T16:45:33.922Z,38.80
2017-06-24T16:48:02.151Z,39.80
2017-06-24T16:51:00.078Z,39.30
2017-06-24T17:53:15.757Z,41.70
2017-06-24T17:55:43.996Z,42.60
2017-06-24T18:31:17.426Z,45.80
2017-06-24T18:33:45.644Z,46.10
2017-06-24T18:42:38.131Z,46.10
2017-06-24T18:45:07.141Z,46.50
2017-06-24T19:02:52.027Z,49.60
2017-06-24T19:32:25.903Z,55.30
2017-06-24T19:50:07.836Z,57.70
2017-06-24T20:05:06.021Z,59.90
2017-06-24T20:16:36.129Z,56.60
2017-06-24T20:19:04.379Z,56.40
2017-06-24T20:21:59.792Z,58.70
2017-06-24T20:57:34.079Z,61.80
2017-06-24T21:00:02.296Z,60.60
2017-06-24T21:05:31.255Z,59.00
2017-06-24T21:07:59.484Z,60.70
2017-06-24T21:10:27.744Z,61.40
2017-06-24T21:12:57.185Z,61.90
2017-06-24T21:18:25.538Z,63.00
2017-06-24T21:20:53.781Z,64.70
2017-06-24T21:23:22.005Z,63.00
2017-06-24T21:25:51.205Z,65.20
2017-06-24T21:46:23.030Z,70.10
2017-06-24T21:48:51.264Z,72.40
2017-06-24T21:51:19.532Z,71.20
2017-06-24T21:53:47.796Z,69.30
2017-06-24T21:56:16.809Z,71.20
2017-06-24T21:58:45.049Z,71.10
2017-06-24T22:01:13.328Z,71.60
2017-06-24T22:03:41.574Z,75.70
2017-06-24T22:06:09.809Z,77.30
2017-06-24T22:08:38.106Z,78.60
2017-06-24T22:17:07.612Z,80.50
2017-06-24T22:19:36.634Z,82.20
2017-06-24T22:22:04.871Z,82.10
2017-06-24T22:24:33.953Z,79.00
2017-06-24T22:27:02.197Z,78.70
2017-06-24T22:29:30.471Z,78.30
2017-06-24T22:31:58.754Z,78.30
2017-06-24T22:34:26.998Z,80.40
2017-06-24T22:36:55.312Z,79.20
2017-06-24T22:42:24.191Z,79.70
2017-06-24T22:44:52.438Z,78.90
2017-06-24T22:47:21.443Z,79.10
2017-06-24T22:49:49.760Z,79.10
2017-06-24T23:01:20.395Z,80.10
2017-06-24T23:03:49.416Z,81.60
2017-06-24T23:12:18.744Z,83.50
2017-06-24T23:14:47.030Z,82.70
2017-06-24T23:17:15.275Z,83.50
2017-06-24T23:19:43.582Z,82.80
2017-06-24T23:52:17.732Z,83.60
2017-06-24T23:54:46.014Z,84.20
2017-06-24T23:57:14.271Z,84.30
2017-06-24T23:59:42.822Z,84.60
